createdAt,value
2017-08-15T00:01:23.580Z,4.70
2017-08-15T00:03:52.610Z,4.67
2017-08-15T00:06:21.673Z,5.13
2017-08-15T00:08:50.716Z,4.80
2017-08-15T00:11:19.802Z,4.23
2017-08-15T00:13:48.855Z,4.20
2017-08-15T00:16:17.924Z,4.20
2017-08-15T00:18:46.996Z,3.70
2017-08-15T00:21:16.056Z,3.90
2017-08-15T00:23:45.135Z,3.33
2017-08-15T00:26:14.220Z,3.70
2017-08-15T00:28:43.265Z,3.90
2017-08-15T00:31:12.324Z,5.13
2017-08-15T00:33:41.379Z,3.90
2017-08-15T00:36:10.453Z,4.33
2017-08-15T00:38:39.522Z,4.90
2017-08-15T00:41:08.653Z,3.90
2017-08-15T00:43:37.720Z,3.70
2017-08-15T00:46:06.786Z,3.70
2017-08-15T00:48:35.826Z,4.10
2017-08-15T00:51:04.906Z,4.10
2017-08-15T00:53:33.973Z,4.20
2017-08-15T00:56:03.028Z,4.50
2017-08-15T00:58:32.068Z,4.20
2017-08-15T01:01:01.115Z,4.00
2017-08-15T01:03:30.204Z,4.20
2017-08-15T01:05:59.241Z,4.13
2017-08-15T01:08:28.448Z,4.33
2017-08-15T01:10:57.479Z,4.10
2017-08-15T01:13:26.559Z,4.00
2017-08-15T01:15:55.595Z,4.33
2017-08-15T01:18:24.640Z,3.80
2017-08-15T01:20:53.778Z,4.60
2017-08-15T01:23:22.830Z,3.80
2017-08-15T01:25:51.880Z,4.17
2017-08-15T01:28:20.919Z,4.20
2017-08-15T01:30:50.009Z,4.50
2017-08-15T01:33:19.048Z,4.00
2017-08-15T01:35:48.143Z,3.93
2017-08-15T01:38:17.192Z,3.57
2017-08-15T01:40:46.235Z,4.10
2017-08-15T01:43:15.291Z,4.10
2017-08-15T01:45:44.360Z,3.90
2017-08-15T01:48:13.439Z,4.13
2017-08-15T01:50:42.523Z,4.33
2017-08-15T01:53:11.554Z,4.10
2017-08-15T01:55:40.627Z,3.93
2017-08-15T01:58:09.724Z,3.47
2017-08-15T02:00:38.773Z,4.30
2017-08-15T02:03:08.025Z,4.13
2017-08-15T02:05:37.084Z,4.80
2017-08-15T02:08:06.193Z,3.77
2017-08-15T02:10:35.246Z,4.53
2017-08-15T02:13:04.393Z,4.60
2017-08-15T02:15:33.431Z,4.17
2017-08-15T02:18:02.504Z,3.93
2017-08-15T02:20:31.542Z,3.93
2017-08-15T02:23:00.591Z,4.20
2017-08-15T02:25:29.651Z,4.33
2017-08-15T02:27:58.712Z,3.63
2017-08-15T02:30:27.785Z,3.93
2017-08-15T02:32:56.855Z,4.03
2017-08-15T02:35:25.928Z,4.30
2017-08-15T02:37:54.985Z,4.30
2017-08-15T02:40:24.281Z,4.27
2017-08-15T02:42:53.348Z,3.83
2017-08-15T02:45:22.444Z,5.30
2017-08-15T02:47:51.539Z,4.57
2017-08-15T02:50:20.596Z,3.90
2017-08-15T02:52:49.684Z,4.27
2017-08-15T02:55:18.752Z,3.80
2017-08-15T02:57:47.824Z,4.10
2017-08-15T03:00:16.915Z,4.00
2017-08-15T03:02:45.940Z,4.23
2017-08-15T03:05:15.005Z,4.10
2017-08-15T03:07:44.127Z,3.83
2017-08-15T03:10:13.195Z,3.77
2017-08-15T03:12:42.292Z,3.57
2017-08-15T03:15:11.348Z,4.37
2017-08-15T03:17:40.445Z,4.17
2017-08-15T03:20:09.514Z,3.63
2017-08-15T03:22:38.609Z,3.87
2017-08-15T03:25:07.674Z,4.20
2017-08-15T03:27:36.731Z,3.70
2017-08-15T03:30:05.784Z,3.90
2017-08-15T03:32:34.866Z,3.90
2017-08-15T03:35:03.912Z,4.17
2017-08-15T03:37:32.967Z,3.83
2017-08-15T03:40:02.016Z,3.80
2017-08-15T03:42:31.085Z,4.23
2017-08-15T03:45:00.170Z,4.47
2017-08-15T03:47:29.246Z,10.63
2017-08-15T03:49:58.275Z,3.80
2017-08-15T03:52:27.332Z,4.50
2017-08-15T03:54:56.491Z,4.80
2017-08-15T03:57:25.568Z,4.30
2017-08-15T03:59:54.618Z,4.90
2017-08-15T04:02:24.043Z,4.53
2017-08-15T04:04:53.110Z,4.27
2017-08-15T04:07:22.173Z,3.90
2017-08-15T04:09:51.202Z,4.10
2017-08-15T04:12:20.290Z,5.13
2017-08-15T04:14:49.344Z,4.00
2017-08-15T04:17:18.391Z,4.63
2017-08-15T04:19:47.467Z,4.30
2017-08-15T04:22:16.516Z,4.70
2017-08-15T04:24:45.589Z,5.07
2017-08-15T04:27:14.671Z,5.00
2017-08-15T04:29:43.740Z,4.33
2017-08-15T04:32:12.856Z,4.70
2017-08-15T04:34:41.930Z,4.60
2017-08-15T04:37:11.000Z,4.37
2017-08-15T04:39:40.038Z,4.60
2017-08-15T04:42:09.149Z,4.60
2017-08-15T04:44:38.183Z,4.83
2017-08-15T04:47:07.280Z,4.13
2017-08-15T04:49:36.292Z,4.80
2017-08-15T04:52:05.370Z,5.10
2017-08-15T04:54:34.428Z,6.07
2017-08-15T04:57:03.539Z,5.50
2017-08-15T04:59:32.578Z,5.50
2017-08-15T05:02:01.632Z,5.30
2017-08-15T05:04:30.672Z,4.93
2017-08-15T05:06:59.741Z,4.70
2017-08-15T05:09:28.788Z,4.93
2017-08-15T05:11:57.883Z,5.03
2017-08-15T05:14:26.923Z,4.60
2017-08-15T05:16:55.973Z,5.03
2017-08-15T05:19:25.039Z,5.87
2017-08-15T05:21:54.114Z,4.83
2017-08-15T05:24:23.148Z,4.70
2017-08-15T05:26:52.226Z,5.30
2017-08-15T05:29:21.268Z,4.53
2017-08-15T05:31:50.312Z,5.00
2017-08-15T05:34:19.391Z,4.47
2017-08-15T05:36:48.443Z,4.97
2017-08-15T05:39:17.515Z,4.47
2017-08-15T05:41:46.598Z,4.40
2017-08-15T05:44:15.654Z,4.40
2017-08-15T05:46:44.703Z,4.60
2017-08-15T05:49:13.816Z,4.13
2017-08-15T05:51:42.890Z,4.93
2017-08-15T05:54:11.966Z,4.80
2017-08-15T05:56:41.006Z,5.00
2017-08-15T05:59:10.036Z,5.03
2017-08-15T06:01:39.111Z,5.03
2017-08-15T06:04:08.165Z,5.40
2017-08-15T06:06:37.201Z,4.73
2017-08-15T06:09:06.266Z,5.10
2017-08-15T06:11:35.340Z,4.47
2017-08-15T06:14:04.391Z,4.57
2017-08-15T06:16:33.444Z,5.20
2017-08-15T06:19:02.524Z,4.40
2017-08-15T06:21:31.606Z,4.43
2017-08-15T06:24:00.668Z,4.67
2017-08-15T06:26:29.733Z,4.70
2017-08-15T06:28:58.773Z,5.00
2017-08-15T06:31:27.832Z,4.07
2017-08-15T06:33:56.908Z,4.00
2017-08-15T06:36:25.958Z,4.80
2017-08-15T06:38:55.023Z,4.40
2017-08-15T06:41:24.077Z,5.27
2017-08-15T06:43:53.143Z,4.70
2017-08-15T06:46:22.200Z,5.60
2017-08-15T06:48:51.495Z,5.70
2017-08-15T06:51:20.564Z,5.47
2017-08-15T06:53:49.630Z,6.07
2017-08-15T06:56:18.675Z,4.73
2017-08-15T06:58:47.763Z,4.90
2017-08-15T07:01:16.836Z,4.87
2017-08-15T07:03:45.887Z,4.03
2017-08-15T07:06:15.176Z,4.07
2017-08-15T07:08:44.225Z,4.73
2017-08-15T07:11:13.360Z,4.03
2017-08-15T07:13:42.400Z,4.07
2017-08-15T07:16:11.468Z,5.00
2017-08-15T07:18:40.512Z,4.40
2017-08-15T07:21:09.585Z,4.40
2017-08-15T07:23:38.645Z,4.83
2017-08-15T07:26:07.697Z,4.77
2017-08-15T07:28:36.743Z,4.50
2017-08-15T07:31:05.815Z,4.83
2017-08-15T07:33:34.884Z,4.80
2017-08-15T07:36:03.951Z,3.73
2017-08-15T07:38:33.005Z,3.77
2017-08-15T07:41:02.064Z,4.33
2017-08-15T07:43:31.180Z,3.50
2017-08-15T07:46:00.210Z,3.43
2017-08-15T07:48:29.249Z,3.90
2017-08-15T07:50:58.328Z,4.17
2017-08-15T07:53:27.377Z,3.90
2017-08-15T07:55:56.419Z,3.93
2017-08-15T07:58:25.485Z,3.80
2017-08-15T08:00:54.555Z,3.60
2017-08-15T08:03:23.604Z,3.57
2017-08-15T08:05:52.677Z,3.83
2017-08-15T08:08:21.735Z,3.23
2017-08-15T08:10:50.979Z,4.10
2017-08-15T08:13:20.030Z,3.67
2017-08-15T08:15:49.072Z,4.03
2017-08-15T08:18:18.146Z,3.67
2017-08-15T08:20:47.192Z,3.57
2017-08-15T08:23:16.296Z,3.70
2017-08-15T08:25:45.376Z,3.27
2017-08-15T08:28:14.455Z,3.87
2017-08-15T08:30:43.495Z,4.00
2017-08-15T08:33:12.570Z,3.90
2017-08-15T08:35:41.608Z,3.40
2017-08-15T08:38:10.674Z,3.40
2017-08-15T08:40:39.748Z,3.97
2017-08-15T08:43:08.784Z,3.40
2017-08-15T08:45:37.833Z,3.33
2017-08-15T08:48:06.920Z,3.37
2017-08-15T08:50:35.973Z,3.23
2017-08-15T08:53:05.044Z,3.10
2017-08-15T08:55:34.125Z,3.30
2017-08-15T08:58:03.179Z,3.30
2017-08-15T09:00:32.224Z,3.90
2017-08-15T09:03:01.323Z,3.50
2017-08-15T09:05:30.407Z,3.47
2017-08-15T09:07:59.452Z,3.03
2017-08-15T09:10:28.569Z,4.10
2017-08-15T09:12:57.639Z,3.80
2017-08-15T09:15:26.703Z,3.10
2017-08-15T09:17:55.791Z,3.33
2017-08-15T09:20:24.858Z,3.20
2017-08-15T09:22:53.895Z,3.33
2017-08-15T09:25:22.955Z,3.37
2017-08-15T09:27:52.000Z,3.60
2017-08-15T09:30:21.104Z,3.43
2017-08-15T09:32:50.136Z,3.57
2017-08-15T09:35:19.253Z,3.53
2017-08-15T09:37:48.271Z,3.40
2017-08-15T09:40:17.338Z,4.17
2017-08-15T09:42:46.404Z,3.33
2017-08-15T09:45:15.506Z,4.00
2017-08-15T09:47:44.575Z,3.20
2017-08-15T09:50:13.628Z,3.30
2017-08-15T09:52:42.684Z,3.50
2017-08-15T09:55:11.740Z,3.60
2017-08-15T09:57:40.788Z,4.30
2017-08-15T10:00:09.867Z,3.40
2017-08-15T10:02:38.970Z,3.40
2017-08-15T10:05:08.136Z,3.57
2017-08-15T10:07:37.188Z,4.23
2017-08-15T10:10:06.249Z,3.60
2017-08-15T10:12:35.304Z,3.93
2017-08-15T10:15:04.412Z,3.87
2017-08-15T10:17:33.471Z,3.30
2017-08-15T10:20:02.575Z,4.00
2017-08-15T10:22:31.630Z,3.70
2017-08-15T10:25:00.702Z,3.80
2017-08-15T10:27:29.902Z,4.83
2017-08-15T10:29:58.965Z,3.77
2017-08-15T10:32:28.023Z,4.07
2017-08-15T10:34:57.052Z,3.90
2017-08-15T10:37:26.134Z,3.60
2017-08-15T10:39:55.200Z,3.97
2017-08-15T10:42:24.926Z,3.90
2017-08-15T10:44:53.987Z,3.80
2017-08-15T10:47:23.035Z,4.40
2017-08-15T10:49:52.090Z,4.10
2017-08-15T10:52:21.135Z,3.80
2017-08-15T10:54:50.202Z,3.60
2017-08-15T10:57:19.247Z,4.00
2017-08-15T10:59:48.320Z,3.93
2017-08-15T11:02:17.377Z,4.00
2017-08-15T11:04:46.447Z,4.03
2017-08-15T11:07:15.769Z,3.70
2017-08-15T11:09:44.849Z,4.40
2017-08-15T11:12:13.900Z,4.00
2017-08-15T11:14:42.934Z,3.77
2017-08-15T11:17:12.052Z,4.20
2017-08-15T11:19:41.061Z,4.30
2017-08-15T11:22:10.119Z,4.20
2017-08-15T11:24:39.213Z,4.20
2017-08-15T11:27:08.264Z,4.43
2017-08-15T11:29:37.333Z,4.73
2017-08-15T11:32:06.408Z,4.30
2017-08-15T11:34:35.456Z,3.70
2017-08-15T11:37:04.628Z,3.63
2017-08-15T11:39:33.685Z,3.63
2017-08-15T11:42:02.744Z,3.70
2017-08-15T11:44:31.787Z,4.40
2017-08-15T11:47:00.835Z,3.80
2017-08-15T11:49:29.884Z,3.33
2017-08-15T11:51:58.959Z,3.40
2017-08-15T11:54:28.032Z,4.00
2017-08-15T11:56:57.076Z,3.50
2017-08-15T11:59:26.148Z,3.50
2017-08-15T12:01:55.204Z,3.60
2017-08-15T12:04:24.295Z,3.10
2017-08-15T12:06:53.377Z,3.50
2017-08-15T12:09:22.466Z,3.63
2017-08-15T12:11:51.535Z,3.53
2017-08-15T12:14:20.579Z,3.50
2017-08-15T12:16:50.355Z,3.50
2017-08-15T12:19:19.381Z,3.10
2017-08-15T12:21:48.420Z,3.00
2017-08-15T12:24:17.484Z,3.43
2017-08-15T12:26:46.556Z,3.40
2017-08-15T12:29:15.646Z,3.40
2017-08-15T12:31:44.696Z,3.00
2017-08-15T12:34:13.768Z,3.53
2017-08-15T12:36:42.827Z,3.30
2017-08-15T12:39:11.881Z,3.07
2017-08-15T12:41:40.972Z,3.40
2017-08-15T12:44:10.027Z,3.23
2017-08-15T12:46:39.101Z,3.40
2017-08-15T12:49:08.156Z,2.90
2017-08-15T12:51:37.219Z,3.57
2017-08-15T12:54:06.285Z,3.00
2017-08-15T12:56:35.341Z,3.33
2017-08-15T12:59:04.387Z,3.70
2017-08-15T13:01:33.476Z,3.10
2017-08-15T13:04:02.549Z,3.13
2017-08-15T13:06:31.621Z,3.10
2017-08-15T13:09:00.687Z,3.27
2017-08-15T13:11:29.751Z,3.03
2017-08-15T13:13:58.816Z,3.53
2017-08-15T13:16:29.816Z,3.57
2017-08-15T13:19:01.845Z,3.73
2017-08-15T13:21:30.914Z,2.90
2017-08-15T13:23:59.947Z,3.40
2017-08-15T13:26:29.005Z,3.87
2017-08-15T13:28:58.080Z,3.27
2017-08-15T13:31:27.144Z,3.30
2017-08-15T13:33:56.210Z,4.43
2017-08-15T13:36:25.255Z,3.40
2017-08-15T13:38:54.325Z,3.37
2017-08-15T13:41:23.428Z,3.37
2017-08-15T13:43:52.453Z,3.00
2017-08-15T13:46:21.504Z,3.17
2017-08-15T13:48:50.548Z,3.47
2017-08-15T13:51:19.631Z,3.40
2017-08-15T13:53:48.699Z,3.60
2017-08-15T13:56:17.775Z,3.67
2017-08-15T13:58:46.815Z,4.20
2017-08-15T14:01:15.873Z,3.53
2017-08-15T14:03:44.944Z,3.10
2017-08-15T14:06:14.014Z,3.60
2017-08-15T14:08:43.073Z,3.30
2017-08-15T14:11:12.116Z,2.77
2017-08-15T14:13:41.192Z,3.30
2017-08-15T14:16:10.378Z,2.90
2017-08-15T14:18:39.415Z,3.37
2017-08-15T14:21:08.485Z,3.10
2017-08-15T14:23:37.526Z,3.40
2017-08-15T14:26:06.580Z,3.10
2017-08-15T14:28:35.624Z,2.70
2017-08-15T14:31:04.680Z,2.80
2017-08-15T14:33:33.761Z,2.50
2017-08-15T14:36:02.814Z,3.57
2017-08-15T14:38:31.855Z,2.90
2017-08-15T14:41:00.960Z,3.20
2017-08-15T14:43:30.004Z,2.90
2017-08-15T14:45:59.084Z,2.80
2017-08-15T14:48:28.136Z,2.83
2017-08-15T14:50:57.231Z,3.00
2017-08-15T14:53:26.267Z,2.90
2017-08-15T14:55:55.314Z,3.20
2017-08-15T14:58:24.412Z,2.97
2017-08-15T15:00:53.479Z,3.10
2017-08-15T15:03:22.536Z,3.50
2017-08-15T15:05:51.593Z,2.60
2017-08-15T15:08:20.642Z,3.70
2017-08-15T15:10:49.688Z,2.90
2017-08-15T15:13:18.788Z,2.93
2017-08-15T15:15:47.860Z,3.27
2017-08-15T15:18:16.916Z,3.40
2017-08-15T15:20:45.986Z,3.30
2017-08-15T15:23:15.074Z,3.57
2017-08-15T15:25:44.152Z,3.03
2017-08-15T15:28:13.417Z,3.30
2017-08-15T15:30:42.468Z,3.90
2017-08-15T15:33:11.554Z,4.00
2017-08-15T15:35:40.603Z,3.40
2017-08-15T15:38:09.707Z,3.80
2017-08-15T15:40:38.779Z,3.77
2017-08-15T15:43:07.842Z,4.10
2017-08-15T15:45:36.887Z,4.10
2017-08-15T15:48:05.980Z,4.00
2017-08-15T15:50:35.024Z,4.33
2017-08-15T15:53:04.143Z,3.83
2017-08-15T15:55:33.178Z,3.73
2017-08-15T15:58:02.241Z,4.30
2017-08-15T16:00:31.320Z,4.33
2017-08-15T16:03:00.360Z,3.67
2017-08-15T16:05:29.416Z,3.80
2017-08-15T16:07:58.504Z,3.80
2017-08-15T16:10:27.555Z,4.50
2017-08-15T16:12:56.621Z,4.10
2017-08-15T16:15:25.756Z,4.47
2017-08-15T16:17:54.825Z,3.93
2017-08-15T16:20:23.870Z,5.10
2017-08-15T16:22:52.954Z,4.50
2017-08-15T16:25:22.023Z,4.60
2017-08-15T16:27:51.080Z,4.30
2017-08-15T16:30:20.150Z,4.30
2017-08-15T16:32:49.252Z,4.47
2017-08-15T16:35:18.303Z,4.23
2017-08-15T16:37:47.425Z,4.50
2017-08-15T16:40:16.472Z,4.50
2017-08-15T16:42:45.569Z,4.60
2017-08-15T16:45:14.619Z,5.20
2017-08-15T16:47:43.695Z,4.80
2017-08-15T16:50:13.240Z,4.67
2017-08-15T16:52:42.260Z,4.67
2017-08-15T16:55:11.368Z,4.47
2017-08-15T16:57:40.429Z,4.37
2017-08-15T17:00:09.496Z,4.43
2017-08-15T17:02:38.550Z,5.13
2017-08-15T17:05:07.716Z,4.40
2017-08-15T17:07:36.756Z,4.93
2017-08-15T17:10:05.832Z,4.40
2017-08-15T17:12:34.880Z,4.57
2017-08-15T17:15:03.930Z,5.00
2017-08-15T17:17:33.004Z,5.43
2017-08-15T17:20:02.083Z,5.90
2017-08-15T17:22:31.136Z,4.83
2017-08-15T17:25:00.180Z,5.10
2017-08-15T17:27:29.340Z,4.93
2017-08-15T17:29:58.523Z,6.27
2017-08-15T17:32:27.553Z,4.73
2017-08-15T17:34:56.613Z,5.10
2017-08-15T17:37:25.712Z,6.03
2017-08-15T17:39:54.802Z,5.80
2017-08-15T17:42:24.304Z,5.27
2017-08-15T17:44:53.378Z,5.40
2017-08-15T17:47:22.427Z,5.30
2017-08-15T17:49:51.486Z,5.63
2017-08-15T17:52:20.568Z,5.00
2017-08-15T17:54:49.647Z,5.87
2017-08-15T17:57:18.716Z,5.57
2017-08-15T17:59:47.797Z,5.67
2017-08-15T18:02:16.854Z,5.10
2017-08-15T18:04:45.910Z,5.73
2017-08-15T18:07:15.012Z,6.23
2017-08-15T18:09:44.080Z,5.70
2017-08-15T18:12:13.121Z,5.33
2017-08-15T18:14:42.181Z,11.20
2017-08-15T18:17:11.267Z,6.53
2017-08-15T18:19:40.303Z,6.17
2017-08-15T18:22:09.421Z,5.90
2017-08-15T18:24:38.467Z,6.10
2017-08-15T18:27:07.549Z,5.80
2017-08-15T18:29:36.629Z,5.50
2017-08-15T18:32:05.691Z,5.50
2017-08-15T18:34:34.756Z,5.50
2017-08-15T18:37:03.841Z,6.67
2017-08-15T18:39:32.916Z,5.40
2017-08-15T18:42:01.964Z,5.73
2017-08-15T18:44:31.036Z,5.97
2017-08-15T18:47:00.073Z,5.83
2017-08-15T18:49:29.152Z,5.67
2017-08-15T18:51:58.232Z,6.27
2017-08-15T18:54:27.295Z,5.80
2017-08-15T18:56:56.381Z,6.30
2017-08-15T18:59:25.434Z,7.00
2017-08-15T19:01:54.492Z,5.70
2017-08-15T19:04:23.565Z,6.57
2017-08-15T19:06:53.227Z,5.30
2017-08-15T19:09:22.305Z,6.57
2017-08-15T19:11:51.372Z,5.90
2017-08-15T19:14:20.424Z,5.90
2017-08-15T19:16:49.584Z,6.77
2017-08-15T19:19:18.622Z,6.20
2017-08-15T19:21:47.717Z,6.90
2017-08-15T19:24:16.909Z,6.70
2017-08-15T19:26:45.985Z,6.50
2017-08-15T19:29:15.041Z,6.43
2017-08-15T19:31:44.136Z,6.97
2017-08-15T19:34:13.221Z,6.77
2017-08-15T19:36:42.292Z,7.23
2017-08-15T19:39:11.479Z,6.40
2017-08-15T19:41:40.622Z,7.90
2017-08-15T19:44:09.689Z,6.90
2017-08-15T19:46:38.768Z,7.30
2017-08-15T19:49:07.936Z,8.60
2017-08-15T19:51:37.015Z,6.60
2017-08-15T19:54:06.061Z,7.40
2017-08-15T19:56:35.230Z,6.50
2017-08-15T19:59:04.370Z,7.37
2017-08-15T20:01:33.470Z,6.67
2017-08-15T20:04:02.624Z,7.40
2017-08-15T20:06:31.695Z,7.40
2017-08-15T20:09:00.749Z,7.43
2017-08-15T20:11:29.822Z,7.30
2017-08-15T20:13:58.854Z,7.57
2017-08-15T20:16:27.925Z,8.00
2017-08-15T20:18:56.976Z,7.60
2017-08-15T20:21:26.051Z,7.43
2017-08-15T20:23:55.116Z,7.93
2017-08-15T20:26:24.189Z,7.40
2017-08-15T20:28:53.231Z,7.70
2017-08-15T20:31:22.312Z,7.13
2017-08-15T20:33:51.384Z,8.63
2017-08-15T20:36:20.453Z,7.50
2017-08-15T20:38:49.503Z,7.30
2017-08-15T20:41:18.583Z,7.47
2017-08-15T20:43:47.657Z,8.23
2017-08-15T20:46:16.714Z,8.17
2017-08-15T20:48:45.788Z,7.30
2017-08-15T20:51:14.860Z,8.20
2017-08-15T20:53:43.923Z,8.60
2017-08-15T20:56:13.000Z,8.47
2017-08-15T20:58:42.077Z,7.70
2017-08-15T21:01:11.185Z,8.67
2017-08-15T21:03:40.236Z,8.53
2017-08-15T21:06:09.305Z,7.90
2017-08-15T21:08:38.371Z,8.70
2017-08-15T21:11:07.720Z,8.20
2017-08-15T21:13:36.796Z,8.27
2017-08-15T21:16:05.856Z,8.73
2017-08-15T21:18:34.912Z,8.03
2017-08-15T21:21:03.997Z,7.93
2017-08-15T21:23:33.050Z,8.40
2017-08-15T21:26:02.134Z,8.97
2017-08-15T21:28:31.175Z,8.73
2017-08-15T21:31:00.230Z,9.00
2017-08-15T21:33:29.375Z,8.80
2017-08-15T21:35:58.443Z,8.67
2017-08-15T21:38:27.509Z,9.43
2017-08-15T21:40:56.552Z,9.20
2017-08-15T21:43:25.661Z,9.40
2017-08-15T21:45:54.735Z,11.07
2017-08-15T21:48:23.796Z,11.40
2017-08-15T21:50:52.886Z,12.10
2017-08-15T21:53:21.933Z,12.57
2017-08-15T21:55:51.047Z,12.23
2017-08-15T21:58:20.120Z,14.67
2017-08-15T22:00:54.613Z,15.40
2017-08-15T22:03:23.693Z,16.27
2017-08-15T22:05:52.812Z,16.67
2017-08-15T22:08:21.877Z,15.27
2017-08-15T22:10:50.937Z,16.47
2017-08-15T22:13:20.013Z,13.60
2017-08-15T22:15:49.072Z,13.90
2017-08-15T22:18:18.151Z,15.27
2017-08-15T22:20:47.239Z,14.70
2017-08-15T22:23:16.324Z,14.13
2017-08-15T22:25:45.388Z,14.17
2017-08-15T22:28:14.490Z,13.40
2017-08-15T22:30:43.562Z,14.70
2017-08-15T22:33:12.664Z,14.30
2017-08-15T22:35:41.747Z,15.37
2017-08-15T22:38:10.874Z,15.27
2017-08-15T22:40:39.924Z,14.70
2017-08-15T22:43:09.033Z,13.10
2017-08-15T22:45:38.117Z,14.70
2017-08-15T22:48:07.188Z,14.73
2017-08-15T22:50:36.257Z,13.10
2017-08-15T22:53:05.356Z,13.20
2017-08-15T22:55:34.428Z,11.80
2017-08-15T22:58:03.499Z,10.80
2017-08-15T23:00:32.587Z,10.60
2017-08-15T23:03:01.656Z,12.37
2017-08-15T23:05:30.699Z,10.53
2017-08-15T23:07:59.759Z,11.73
2017-08-15T23:10:28.825Z,12.73
2017-08-15T23:12:57.900Z,11.33
2017-08-15T23:15:26.968Z,13.33
2017-08-15T23:17:56.029Z,16.00
2017-08-15T23:20:25.094Z,14.00
2017-08-15T23:22:54.164Z,14.57
2017-08-15T23:25:23.486Z,13.53
2017-08-15T23:27:53.435Z,14.47
2017-08-15T23:30:22.495Z,14.37
2017-08-15T23:32:51.571Z,13.97
2017-08-15T23:35:20.635Z,14.33
2017-08-15T23:37:49.711Z,13.10
2017-08-15T23:40:18.791Z,14.53
2017-08-15T23:42:47.836Z,13.40
2017-08-15T23:45:17.461Z,14.50
2017-08-15T23:47:46.535Z,15.80
2017-08-15T23:50:15.618Z,15.03
2017-08-15T23:52:44.655Z,15.17
2017-08-15T23:55:13.771Z,15.97
2017-08-15T23:57:42.839Z,17.73
